Great BritainFixed distance
Ultra-Trail Snowdonia - 50K
13 May2023
Distance
55km
Finishers
875693 men182 women
Winning time
5:27:11h
Median pace
4.92km/h
Pace distribution
876 finishers · 3.94–10.09 km/h · mean 5.11
Every finisher ran the same 55 km course, so these paces are directly comparable.
Histogram of finisher pace. 876 finishers ranged from 3.94 to 10.09 kilometres per hour, with a mean of 5.11 and a median of 4.92. The busiest band is 4.0 to 4.5 kilometres per hour, with 237 finishers.
Results
Ranks 101–150 of 876
| Rank | Runner | Time | Pace | Cat. | Placing |
|---|---|---|---|---|---|
| 101 | 8:54:28h | 6.17 | M23 | 84th M · 40th M23 | |
| 102 | 8:55:03h | 6.17 | M23 | 85th M · 41st M23 | |
| 103 | 8:56:23h | 6.15 | M23 | 86th M · 42nd M23 | |
| 104 | 8:57:54h | 6.13 | M23 | 87th M · 43rd M23 | |
| 105 | 8:57:59h | 6.13 | W23 | 18th F · 8th W23 | |
| 105 | 8:57:59h | 6.13 | M50 | 88th M · 3rd M50 | |
| 107 | 8:58:14h | 6.13 | M23 | 89th M · 44th M23 | |
| 108 | 8:58:29h | 6.13 | M40 | 90th M · 18th M40 | |
| 109 | Westerlands CCC | 8:58:43h | 6.13 | M35 | 91st M · 16th M35 |
| 110 | 9:00:22h | 6.11 | W23 | 19th F · 9th W23 | |
| 111 | RAF Ultra Running | 9:01:31h | 6.09 | W23 | 20th F · 10th W23 |
| 112 | 9:01:35h | 6.09 | M35 | 92nd M · 17th M35 | |
| 113 | 9:02:08h | 6.09 | W23 | 21st F · 11th W23 | |
| 114 | 9:02:44h | 6.08 | M23 | 93rd M · 45th M23 | |
| 115 | 9:04:02h | 6.07 | M23 | 94th M · 46th M23 | |
| 116 | Truro Running Club | 9:04:12h | 6.06 | M55 | 95th M · 3rd M55 |
| 117 | 9:04:26h | 6.06 | M23 | 96th M · 47th M23 | |
| 118 | Let's do this | 9:04:53h | 6.06 | M23 | 97th M · 48th M23 |
| 119 | Victoria Park Harriers | 9:05:38h | 6.05 | M23 | 98th M · 49th M23 |
| 120 | 9:05:40h | 6.05 | W35 | 22nd F · 7th W35 | |
| 121 | 9:08:10h | 6.02 | M40 | 99th M · 19th M40 | |
| 122 | Ciucciolino | 9:08:21h | 6.02 | M23 | 100th M · 50th M23 |
| 123 | 9:08:22h | 6.02 | W35 | 23rd F · 8th W35 | |
| 123 | Kinetic Sports | 9:08:22h | 6.02 | M23 | 101st M · 51st M23 |
| 125 | 9:08:42h | 6.01 | M35 | 102nd M · 18th M35 | |
| 126 | Dulwich Runners | 9:08:46h | 6.01 | M23 | 103rd M · 52nd M23 |
| 127 | Run Free Fellrunners | 9:10:37h | 5.99 | M35 | 104th M · 19th M35 |
| 128 | Team Ruhrpott | 9:11:27h | 5.98 | M23 | 105th M · 53rd M23 |
| 129 | 9:12:41h | 5.97 | MU23 | 106th M · 3rd MU23 | |
| 130 | 9:12:58h | 5.97 | W23 | 24th F · 12th W23 | |
| 131 | 9:12:59h | 5.97 | M40 | 107th M · 20th M40 | |
| 132 | 9:13:07h | 5.97 | M35 | 108th M · 20th M35 | |
| 133 | 9:13:14h | 5.96 | M45 | 109th M · 7th M45 | |
| 134 | Let’s do this | 9:13:33h | 5.96 | W23 | 25th F · 13th W23 |
| 135 | 9:13:43h | 5.96 | M23 | 110th M · 54th M23 | |
| 136 | Halstead RR | 9:14:00h | 5.96 | M45 | 111th M · 8th M45 |
| 137 | 9:14:39h | 5.95 | M35 | 112th M · 21st M35 | |
| 138 | Zimowa Poniewierka Poland | 9:15:29h | 5.94 | M23 | 113th M · 55th M23 |
| 139 | 9:15:47h | 5.94 | M35 | 114th M · 22nd M35 | |
| 140 | Lewes AC | 9:16:42h | 5.93 | M65 | 115th M · 1st M65 |
| 141 | Team Smevs | 9:16:50h | 5.93 | W40 | 26th F · 4th W40 |
| 142 | Cambridge Harriers | 9:17:10h | 5.92 | M40 | 116th M · 21st M40 |
| 143 | 9:17:16h | 5.92 | W35 | 27th F · 9th W35 | |
| 144 | 9:17:26h | 5.92 | M23 | 117th M · 56th M23 | |
| 145 | 9:17:27h | 5.92 | M23 | 118th M · 57th M23 | |
| 146 | 9:17:49h | 5.92 | M23 | 119th M · 58th M23 | |
| 147 | Ranelagh Harriers | 9:19:21h | 5.90 | W40 | 28th F · 5th W40 |
| 148 | Worcester AC | 9:20:53h | 5.88 | M23 | 120th M · 59th M23 |
| 149 | 9:22:34h | 5.87 | M45 | 121st M · 9th M45 | |
| 150 | Sexy Walrus | 9:23:04h | 5.86 | W35 | 29th F · 10th W35 |
- 10184th M · 40th M23Time8:54:28hPace6.17Cat.M23
- 10285th M · 41st M23Time8:55:03hPace6.17Cat.M23
- 10386th M · 42nd M23Time8:56:23hPace6.15Cat.M23
- 10487th M · 43rd M23Time8:57:54hPace6.13Cat.M23
- 10518th F · 8th W23Time8:57:59hPace6.13Cat.W23
- 10588th M · 3rd M50Time8:57:59hPace6.13Cat.M50
- 10789th M · 44th M23Time8:58:14hPace6.13Cat.M23
- 10890th M · 18th M40Time8:58:29hPace6.13Cat.M40
- 109Westerlands CCC91st M · 16th M35Time8:58:43hPace6.13Cat.M35
- 11019th F · 9th W23Time9:00:22hPace6.11Cat.W23
- 111RAF Ultra Running20th F · 10th W23Time9:01:31hPace6.09Cat.W23
- 11292nd M · 17th M35Time9:01:35hPace6.09Cat.M35
- 11321st F · 11th W23Time9:02:08hPace6.09Cat.W23
- 11493rd M · 45th M23Time9:02:44hPace6.08Cat.M23
- 11594th M · 46th M23Time9:04:02hPace6.07Cat.M23
- 116Truro Running Club95th M · 3rd M55Time9:04:12hPace6.06Cat.M55
- 11796th M · 47th M23Time9:04:26hPace6.06Cat.M23
- 118Let's do this97th M · 48th M23Time9:04:53hPace6.06Cat.M23
- 119Victoria Park Harriers98th M · 49th M23Time9:05:38hPace6.05Cat.M23
- 12022nd F · 7th W35Time9:05:40hPace6.05Cat.W35
- 12199th M · 19th M40Time9:08:10hPace6.02Cat.M40
- 122Ciucciolino100th M · 50th M23Time9:08:21hPace6.02Cat.M23
- 12323rd F · 8th W35Time9:08:22hPace6.02Cat.W35
- 123Kinetic Sports101st M · 51st M23Time9:08:22hPace6.02Cat.M23
- 125102nd M · 18th M35Time9:08:42hPace6.01Cat.M35
- 126Dulwich Runners103rd M · 52nd M23Time9:08:46hPace6.01Cat.M23
- 127Run Free Fellrunners104th M · 19th M35Time9:10:37hPace5.99Cat.M35
- 128Team Ruhrpott105th M · 53rd M23Time9:11:27hPace5.98Cat.M23
- 129106th M · 3rd MU23Time9:12:41hPace5.97Cat.MU23
- 13024th F · 12th W23Time9:12:58hPace5.97Cat.W23
- 131107th M · 20th M40Time9:12:59hPace5.97Cat.M40
- 132108th M · 20th M35Time9:13:07hPace5.97Cat.M35
- 133109th M · 7th M45Time9:13:14hPace5.96Cat.M45
- 134Let’s do this25th F · 13th W23Time9:13:33hPace5.96Cat.W23
- 135110th M · 54th M23Time9:13:43hPace5.96Cat.M23
- 136Halstead RR111th M · 8th M45Time9:14:00hPace5.96Cat.M45
- 137112th M · 21st M35Time9:14:39hPace5.95Cat.M35
- 138Zimowa Poniewierka Poland113th M · 55th M23Time9:15:29hPace5.94Cat.M23
- 139114th M · 22nd M35Time9:15:47hPace5.94Cat.M35
- 140Lewes AC115th M · 1st M65Time9:16:42hPace5.93Cat.M65
- 141Team Smevs26th F · 4th W40Time9:16:50hPace5.93Cat.W40
- 142Cambridge Harriers116th M · 21st M40Time9:17:10hPace5.92Cat.M40
- 14327th F · 9th W35Time9:17:16hPace5.92Cat.W35
- 144117th M · 56th M23Time9:17:26hPace5.92Cat.M23
- 145118th M · 57th M23Time9:17:27hPace5.92Cat.M23
- 146119th M · 58th M23Time9:17:49hPace5.92Cat.M23
- 147Ranelagh Harriers28th F · 5th W40Time9:19:21hPace5.90Cat.W40
- 148Worcester AC120th M · 59th M23Time9:20:53hPace5.88Cat.M23
- 149121st M · 9th M45Time9:22:34hPace5.87Cat.M45
- 150Sexy Walrus29th F · 10th W35Time9:23:04hPace5.86Cat.W35
Showing ranks 101–150 of 876